Enter the Airport ICAO Code

Search by Airport or City

Current Weather

FIMP | Sir Seewoosagur Ramgoolam International Airport

Plaine Magnien, Mauritius

Last Update 49 Minutes Ago

Rain Shower

Temperature of 30 ºC

Light to Moderate Winds from SouthEast

Temperature

30 ºC

Dew Point Temperature

23 ºC

Relative Humidity

66.34 %

Wind Direction

SouthEast (150º, Without Significant Variations)

Wind Velocity

13 km/h (07 kt)

Gusts

None

Visibility

Greater than 10 Kilometers

Sea Level Pressure

1010 hPa (Hectopascals)

Layers of Clouds

5% to 30% of Sky Covered with Cumulonimbus from 457 mts (1500 ft) Above Ground Level.

5% to 30% of Sky Covered from 488 mts (1600 ft) Above Ground Level.

METAR FIMP 091000Z 15007KT 9999 VCSH FEW015CB FEW016 30/23 Q1010

Weather Forecast

FIMP | Sir Seewoosagur Ramgoolam International Airport

Plaine Magnien, Mauritius

Forecast valid for the next 25 Hours

From now on it is expected:

Partly Cloudy Sky

Light to Moderate Winds from South

In 7 to 9 hours it is expected the begining of:

Light Winds from NorthWest

In 16 to 18 hours it is expected the begining of:

Light to Moderate Winds from SouthEast

Maximum Temperature

No Data

Minimum Temperature

No Data

TAF FIMP 090510Z 0906/1012 19005KT 9999 SCT017 BECMG 0918/0920 33003KT BECMG 1003/1005 13007KT